Time;durP1;ratioP1;P1;durP2;ratioP2;P2;SDS_P1;SDS_P2;PMS_P1;PMS_P2;Temp;Humidity;BMP_temperature;BMP_pressure;BME280_temperature;BME280_humidity;BME280_pressure;Samples;Min_cycle;Max_cycle;Signal;HPM_P1;HPM_P2
2022/05/04 00:01:19;;;;;;;11.63;4.57;;;333.40;2329.60;;;;;;5094571;28;20530;-81
2022/05/04 00:03:45;;;;;;;7.28;5.15;;;333.40;2329.60;;;;;;5094248;28;20020;-80
2022/05/04 00:06:11;;;;;;;8.82;5.78;;;333.20;2329.60;;;;;;5094782;28;20024;-80
2022/05/04 00:08:39;;;;;;;11.43;6.10;;;333.30;2329.60;;;;;;5094358;28;20476;-80
2022/05/04 00:11:06;;;;;;;11.50;6.03;;;333.20;2329.60;;;;;;5094265;28;20051;-80
2022/05/04 00:13:33;;;;;;;7.90;6.38;;;333.20;2329.60;;;;;;5094556;28;20413;-79
2022/05/04 00:16:02;;;;;;;14.23;6.00;;;333.20;2329.60;;;;;;5091623;28;20095;-80
2022/05/04 00:18:28;;;;;;;8.48;5.25;;;333.60;2329.60;;;;;;5094436;28;20081;-80
2022/05/04 00:20:54;;;;;;;15.68;5.55;;;358.50;2329.60;;;;;;5093917;28;20028;-80
2022/05/04 00:23:20;;;;;;;7.10;5.03;;;358.50;2329.60;;;;;;5094048;28;20027;-80
2022/05/04 00:25:46;;;;;;;6.60;4.55;;;358.60;2329.60;;;;;;5093946;28;20020;-79
2022/05/04 00:28:11;;;;;;;9.27;4.80;;;358.60;2329.60;;;;;;5093815;28;20035;-80
2022/05/04 00:30:37;;;;;;;7.63;5.43;;;358.60;2329.60;;;;;;5093742;28;20032;-81
2022/05/04 00:33:03;;;;;;;10.63;5.00;;;358.60;2329.60;;;;;;5093647;28;20062;-80
2022/05/04 00:35:29;;;;;;;12.13;7.03;;;358.60;2329.60;;;;;;5093977;28;20172;-80
2022/05/04 00:37:54;;;;;;;10.45;6.75;;;358.50;2329.60;;;;;;5093592;28;20022;-80
2022/05/04 00:40:20;;;;;;;10.50;5.95;;;358.50;2329.60;;;;;;5095099;28;20044;-80
2022/05/04 00:42:46;;;;;;;11.48;6.18;;;358.60;2329.60;;;;;;5093694;28;20483;-80
2022/05/04 00:45:11;;;;;;;9.45;5.80;;;358.80;2329.60;;;;;;5093770;28;20054;-80
2022/05/04 00:47:37;;;;;;;14.80;6.30;;;358.80;2329.60;;;;;;5093432;28;20020;-80
2022/05/04 00:50:05;;;;;;;25.42;12.07;;;359.00;2329.60;;;;;;5093605;28;20077;-80
2022/05/04 00:52:32;;;;;;;14.57;7.97;;;359.00;2329.60;;;;;;5094489;28;20020;-80
2022/05/04 00:54:59;;;;;;;13.07;8.15;;;359.10;2329.60;;;;;;5094537;28;20016;-80
2022/05/04 01:00:11;;;;;;;44.55;19.25;;;359.10;2329.60;;;;;;5093028;28;20098;-80
2022/05/04 01:02:41;;;;;;;68.38;29.13;;;359.20;2329.60;;;;;;5093360;28;20024;-80
2022/05/04 01:05:11;;;;;;;50.15;22.63;;;359.10;2329.60;;;;;;5093192;28;20050;-80
2022/05/04 01:07:42;;;;;;;26.88;9.98;;;359.00;2329.60;;;;;;5093549;28;20016;-80
2022/05/04 01:10:09;;;;;;;13.20;7.40;;;358.90;2329.60;;;;;;5093024;28;20034;-80
2022/05/04 01:12:36;;;;;;;10.73;6.03;;;359.00;2329.60;;;;;;5093325;28;20079;-80
2022/05/04 01:15:03;;;;;;;10.10;6.32;;;358.90;2329.60;;;;;;5090693;28;20021;-80
2022/05/04 01:17:29;;;;;;;11.40;7.18;;;358.80;2329.60;;;;;;5092925;28;20020;-80
2022/05/04 01:19:59;;;;;;;9.02;5.30;;;358.80;2329.60;;;;;;5093007;28;20063;-80
2022/05/04 01:22:25;;;;;;;9.25;5.80;;;358.50;2329.60;;;;;;5093109;28;20058;-80
2022/05/04 01:24:51;;;;;;;10.55;5.47;;;333.70;2329.60;;;;;;5093200;28;20040;-80
2022/05/04 01:27:17;;;;;;;8.75;5.50;;;333.60;2329.60;;;;;;5093994;28;20028;-80
2022/05/04 01:29:43;;;;;;;9.13;5.78;;;333.60;2329.60;;;;;;5092848;28;20043;-80
2022/05/04 01:32:09;;;;;;;9.90;5.28;;;333.60;2329.60;;;;;;5093228;28;20028;-80
2022/05/04 01:34:34;;;;;;;10.52;5.80;;;333.40;2329.60;;;;;;5092261;28;20036;-80
2022/05/04 01:37:04;;;;;;;10.25;5.43;;;333.40;2329.60;;;;;;5092664;28;20024;-80
2022/05/04 01:39:29;;;;;;;7.78;5.63;;;333.30;2329.60;;;;;;5092869;28;20027;-80
2022/05/04 01:42:05;;;;;;;9.63;5.82;;;333.20;2329.60;;;;;;5092099;28;20036;-80
2022/05/04 01:44:35;;;;;;;7.45;5.35;;;333.20;2329.60;;;;;;5091038;28;20491;-80
2022/05/04 01:47:01;;;;;;;8.25;6.00;;;333.20;2329.60;;;;;;5092509;28;20024;-80
2022/05/04 01:49:27;;;;;;;11.85;5.95;;;333.30;2329.60;;;;;;5091558;28;20052;-81
2022/05/04 01:51:53;;;;;;;7.50;5.90;;;333.30;2329.60;;;;;;5092008;28;20077;-80
2022/05/04 01:54:19;;;;;;;10.50;6.63;;;333.40;2329.60;;;;;;5092256;28;20020;-79
2022/05/04 01:56:45;;;;;;;10.93;6.38;;;333.40;2329.60;;;;;;5091952;28;20023;-79
2022/05/04 01:59:11;;;;;;;10.50;5.90;;;333.50;2329.60;;;;;;5092043;28;20066;-80
2022/05/04 02:01:40;;;;;;;9.90;6.97;;;333.60;2329.60;;;;;;5092193;28;20028;-80
2022/05/04 02:04:06;;;;;;;12.98;8.85;;;333.70;2329.60;;;;;;5089670;28;20032;-80
2022/05/04 02:06:33;;;;;;;11.52;7.55;;;358.40;2329.60;;;;;;5091925;28;20020;-80
2022/05/04 02:08:58;;;;;;;9.68;8.13;;;358.50;2329.60;;;;;;5091958;28;20036;-80
2022/05/04 02:11:25;;;;;;;10.57;7.05;;;358.60;2329.60;;;;;;5092022;28;20380;-80
2022/05/04 02:13:51;;;;;;;11.00;8.32;;;358.80;2329.60;;;;;;5090888;28;20031;-80
2022/05/04 02:16:17;;;;;;;13.50;8.52;;;358.80;2329.60;;;;;;5092086;28;20114;-80
2022/05/04 02:18:43;;;;;;;12.25;7.72;;;358.90;2329.60;;;;;;5092033;28;20012;-80
2022/05/04 02:21:10;;;;;;;10.65;7.03;;;359.00;2329.60;;;;;;5091382;28;20061;-80
2022/05/04 02:23:36;;;;;;;11.27;6.32;;;359.10;2329.60;;;;;;5091648;28;20020;-79
2022/05/04 02:26:02;;;;;;;11.52;6.25;;;359.20;2329.60;;;;;;5085827;28;20165;-79
2022/05/04 02:28:28;;;;;;;9.48;6.45;;;359.20;2329.60;;;;;;5089412;28;20017;-79
2022/05/04 02:30:54;;;;;;;11.52;7.97;;;359.30;2329.60;;;;;;5091630;28;20032;-80
2022/05/04 02:33:20;;;;;;;10.63;6.88;;;359.30;2329.60;;;;;;5091521;28;20016;-80
2022/05/04 02:38:30;;;;;;;13.55;8.55;;;384.00;2329.60;;;;;;5091113;28;20069;-79
2022/05/04 02:40:56;;;;;;;10.43;7.07;;;384.00;2329.60;;;;;;5091340;28;20032;-79
2022/05/04 02:43:21;;;;;;;8.75;6.95;;;359.30;2329.60;;;;;;5091446;28;20069;-80
2022/05/04 02:45:47;;;;;;;10.35;6.82;;;359.20;2329.60;;;;;;5072439;28;20438;-80
2022/05/04 02:48:13;;;;;;;12.90;7.50;;;359.10;2329.60;;;;;;5091396;28;20475;-80
2022/05/04 02:50:38;;;;;;;10.65;6.97;;;359.10;2329.60;;;;;;5092267;28;20103;-80
2022/05/04 02:53:05;;;;;;;9.32;6.80;;;359.10;2329.60;;;;;;5091349;28;20015;-80
2022/05/04 02:55:31;;;;;;;12.60;7.85;;;359.10;2329.60;;;;;;5092383;28;20045;-80
2022/05/04 02:57:57;;;;;;;10.75;8.20;;;359.00;2329.60;;;;;;5091192;28;20081;-80
2022/05/04 03:00:24;;;;;;;12.00;7.75;;;359.00;2329.60;;;;;;5090958;28;20047;-80
2022/05/04 03:02:53;;;;;;;10.93;7.57;;;359.00;2329.60;;;;;;5091250;28;20051;-80
2022/05/04 03:05:19;;;;;;;13.00;7.35;;;359.00;2329.60;;;;;;5091721;28;20032;-79
2022/05/04 03:07:44;;;;;;;11.18;7.35;;;358.90;2329.60;;;;;;5092484;28;20022;-79
2022/05/04 03:10:10;;;;;;;16.33;8.40;;;358.90;2329.60;;;;;;5091126;28;20043;-80
2022/05/04 03:12:37;;;;;;;20.98;9.80;;;358.80;2329.60;;;;;;5091172;28;20035;-80
2022/05/04 03:15:04;;;;;;;13.13;7.78;;;358.60;2329.60;;;;;;5092554;28;20073;-79
2022/05/04 03:17:30;;;;;;;11.95;7.70;;;333.60;2329.60;;;;;;5090846;28;20475;-79
2022/05/04 03:19:56;;;;;;;12.07;7.72;;;333.40;2329.60;;;;;;5090996;28;20035;-79
2022/05/04 03:22:22;;;;;;;20.00;7.93;;;333.10;2329.60;;;;;;5090942;28;20032;-80
2022/05/04 03:24:47;;;;;;;12.02;7.60;;;333.00;2329.60;;;;;;5090912;28;20479;-80
2022/05/04 03:27:13;;;;;;;13.85;8.30;;;332.80;2329.60;;;;;;5090932;28;20387;-80
2022/05/04 03:29:39;;;;;;;12.10;8.38;;;308.00;2304.00;;;;;;5090415;28;20119;-80
2022/05/04 03:32:05;;;;;;;13.52;8.77;;;307.80;2304.00;;;;;;5091248;28;20039;-80
2022/05/04 03:34:31;;;;;;;15.30;9.10;;;307.70;2304.00;;;;;;5090895;28;20021;-80
2022/05/04 03:37:00;;;;;;;14.60;8.48;;;307.80;2304.00;;;;;;5091113;28;20074;-80
2022/05/04 03:39:29;;;;;;;10.23;8.30;;;307.90;2304.00;;;;;;5090958;28;20012;-80
2022/05/04 03:41:55;;;;;;;12.88;8.43;;;307.90;2304.00;;;;;;5085419;28;20024;-80
2022/05/04 03:44:22;;;;;;;14.20;8.80;;;308.00;2304.00;;;;;;5091995;28;20460;-80
2022/05/04 03:46:49;;;;;;;17.83;8.98;;;308.10;2304.00;;;;;;5090962;28;20050;-80
2022/05/04 03:49:19;;;;;;;16.45;9.80;;;308.00;2304.00;;;;;;5090916;28;20069;-80
2022/05/04 03:51:46;;;;;;;15.68;9.93;;;308.00;2304.00;;;;;;5090782;28;20047;-80
2022/05/04 03:54:11;;;;;;;16.73;9.77;;;308.10;2304.00;;;;;;5090907;28;20111;-80
2022/05/04 03:56:38;;;;;;;16.02;8.82;;;308.00;2304.00;;;;;;5090458;28;20111;-79
2022/05/04 03:59:05;;;;;;;13.75;9.80;;;308.00;2304.00;;;;;;5090440;28;20031;-79
2022/05/04 04:01:32;;;;;;;14.93;9.13;;;307.90;2304.00;;;;;;5090570;28;20123;-79
2022/05/04 04:03:57;;;;;;;19.92;10.40;;;307.90;2304.00;;;;;;5093136;28;20024;-80
2022/05/04 04:06:23;;;;;;;19.00;10.73;;;307.90;2304.00;;;;;;5094199;28;20027;-80
2022/05/04 04:08:50;;;;;;;21.90;12.50;;;307.80;2304.00;;;;;;5094213;28;20020;-80
2022/05/04 04:11:16;;;;;;;22.80;10.80;;;307.80;2304.00;;;;;;5094586;28;20039;-80
2022/05/04 04:13:42;;;;;;;16.15;12.07;;;307.70;2304.00;;;;;;5094318;28;20023;-80
2022/05/04 04:16:08;;;;;;;19.40;11.75;;;307.80;2304.00;;;;;;5094423;28;20020;-80
2022/05/04 04:18:34;;;;;;;15.90;11.63;;;307.80;2304.00;;;;;;5094241;28;20016;-80
2022/05/04 04:23:44;;;;;;;21.70;13.15;;;307.70;2304.00;;;;;;5095002;28;20498;-79
2022/05/04 04:26:10;;;;;;;25.80;13.07;;;307.80;2304.00;;;;;;5093603;28;20032;-79
2022/05/04 04:28:40;;;;;;;25.90;14.55;;;307.90;2304.00;;;;;;5095203;28;20078;-80
2022/05/04 04:31:09;;;;;;;20.90;13.52;;;308.00;2304.00;;;;;;5093913;28;20028;-79
2022/05/04 04:33:35;;;;;;;21.35;13.70;;;307.90;2304.00;;;;;;5094297;28;20027;-80
2022/05/04 04:36:02;;;;;;;22.20;14.40;;;308.10;2304.00;;;;;;5094193;28;20039;-80
2022/05/04 04:38:28;;;;;;;22.95;14.25;;;308.10;2304.00;;;;;;5095217;28;20012;-79
2022/05/04 04:40:55;;;;;;;26.17;15.48;;;332.90;2329.60;;;;;;5087688;28;20036;-79
2022/05/04 04:43:21;;;;;;;22.45;14.50;;;332.90;2329.60;;;;;;5093858;28;20021;-78
2022/05/04 04:45:48;;;;;;;21.85;15.13;;;332.90;2329.60;;;;;;5093612;28;20080;-79
2022/05/04 04:48:17;;;;;;;26.20;15.73;;;333.10;2329.60;;;;;;5093381;28;20012;-80
2022/05/04 04:50:46;;;;;;;24.90;17.27;;;332.90;2329.60;;;;;;5094934;28;20012;-79
2022/05/04 04:53:17;;;;;;;28.42;16.08;;;333.20;2329.60;;;;;;5090741;28;20051;-80
2022/05/04 04:55:45;;;;;;;33.53;15.60;;;333.30;2329.60;;;;;;5093404;28;20104;-82
2022/05/04 04:58:11;;;;;;;33.70;16.77;;;333.60;2329.60;;;;;;5090170;28;20026;-79
2022/05/04 05:00:37;;;;;;;27.73;19.45;;;333.70;2329.60;;;;;;5092652;28;20048;-79
2022/05/04 05:03:03;;;;;;;37.78;15.68;;;358.40;2329.60;;;;;;5093068;28;20032;-78
2022/05/04 05:05:29;;;;;;;46.33;15.13;;;358.50;2329.60;;;;;;5094211;28;20020;-77
2022/05/04 05:07:55;;;;;;;23.65;16.60;;;358.60;2329.60;;;;;;5093061;28;20084;-80
2022/05/04 05:10:20;;;;;;;29.75;15.27;;;358.80;2329.60;;;;;;5092600;28;20031;-79
2022/05/04 05:12:50;;;;;;;25.63;15.48;;;358.90;2329.60;;;;;;5092534;28;20036;-79
2022/05/04 05:18:00;;;;;;;24.02;14.35;;;359.00;2329.60;;;;;;5092635;28;20059;-79
2022/05/04 05:20:26;;;;;;;34.40;17.15;;;384.20;2329.60;;;;;;5092464;28;20076;-79
2022/05/04 05:22:51;;;;;;;33.95;14.65;;;359.20;2329.60;;;;;;5092517;28;20032;-79
2022/05/04 05:25:17;;;;;;;27.90;15.90;;;359.20;2329.60;;;;;;5092098;28;20020;-80
2022/05/04 05:27:43;;;;;;;22.13;15.73;;;359.20;2329.60;;;;;;5093534;28;20024;-79
2022/05/04 05:30:09;;;;;;;27.48;14.55;;;384.00;2329.60;;;;;;5092369;28;20032;-77
2022/05/04 05:32:35;;;;;;;28.38;15.82;;;384.00;2329.60;;;;;;5093229;28;20487;-75
2022/05/04 05:35:00;;;;;;;22.27;14.77;;;384.10;2329.60;;;;;;5093336;28;20028;-76
2022/05/04 05:37:26;;;;;;;28.50;15.35;;;384.20;2329.60;;;;;;5091800;28;20048;-74
2022/05/04 05:39:52;;;;;;;25.67;14.85;;;384.30;2329.60;;;;;;5093294;28;20430;-77
2022/05/04 05:42:17;;;;;;;25.52;15.70;;;384.40;2329.60;;;;;;5093223;28;20553;-77
2022/05/04 05:44:43;;;;;;;27.45;15.30;;;384.40;2329.60;;;;;;5092993;28;20099;-77
2022/05/04 05:47:09;;;;;;;29.38;16.58;;;384.60;2329.60;;;;;;5091058;28;20366;-77
2022/05/04 05:49:35;;;;;;;20.50;15.57;;;384.70;2329.60;;;;;;5091363;28;20028;-78
2022/05/04 05:52:00;;;;;;;19.60;15.10;;;384.80;2329.60;;;;;;5093566;28;20024;-77
2022/05/04 05:54:27;;;;;;;35.80;15.98;;;384.90;2329.60;;;;;;5091985;28;20044;-77
2022/05/04 05:56:52;;;;;;;22.98;14.55;;;384.90;2329.60;;;;;;5093682;28;20545;-77
2022/05/04 05:59:18;;;;;;;24.50;16.25;;;384.90;2329.60;;;;;;5091903;28;20051;-77
2022/05/04 06:01:44;;;;;;;28.10;14.93;;;409.70;2355.20;;;;;;5091751;28;20071;-77
2022/05/04 06:04:10;;;;;;;29.15;15.43;;;409.70;2355.20;;;;;;5091882;28;20116;-76
2022/05/04 06:06:36;;;;;;;25.95;14.43;;;409.90;2355.20;;;;;;5092135;28;20097;-77
2022/05/04 06:09:02;;;;;;;21.45;13.43;;;410.00;2355.20;;;;;;5091697;28;20468;-77
2022/05/04 06:11:28;;;;;;;25.52;14.23;;;410.00;2355.20;;;;;;5091955;28;20543;-77
2022/05/04 06:13:54;;;;;;;22.30;14.45;;;410.20;2355.20;;;;;;5093107;28;20122;-76
2022/05/04 06:16:20;;;;;;;23.23;14.43;;;410.40;2355.20;;;;;;5093022;28;20038;-77
2022/05/04 06:18:46;;;;;;;22.00;13.82;;;410.50;2355.20;;;;;;5092021;28;20473;-77
2022/05/04 06:21:12;;;;;;;20.42;12.75;;;435.20;2355.20;;;;;;5091540;28;20039;-76
2022/05/04 06:23:38;;;;;;;23.25;14.82;;;435.30;2355.20;;;;;;5091704;28;20031;-77
2022/05/04 06:26:04;;;;;;;23.48;15.38;;;435.30;2355.20;;;;;;5091111;28;20404;-76
2022/05/04 06:28:29;;;;;;;24.35;15.35;;;435.50;2355.20;;;;;;5091030;28;20114;-77
2022/05/04 06:36:23;;;;;;;47.75;26.15;;;435.70;2355.20;;;;;;5092983;28;20055;-77
2022/05/04 06:38:49;;;;;;;27.38;16.45;;;435.80;2355.20;;;;;;5092304;28;20459;-77
2022/05/04 06:41:15;;;;;;;23.52;13.48;;;436.00;2355.20;;;;;;5092375;28;20035;-80
2022/05/04 06:43:41;;;;;;;18.73;12.93;;;436.10;2355.20;;;;;;5092504;28;20087;-80
2022/05/04 06:46:07;;;;;;;27.20;14.35;;;460.80;2380.80;;;;;;5092960;28;20518;-82
2022/05/04 06:48:33;;;;;;;35.95;14.07;;;461.00;2380.80;;;;;;5092082;28;20028;-84
2022/05/04 06:50:59;;;;;;;19.15;12.07;;;461.10;2380.80;;;;;;5091890;28;20028;-81
2022/05/04 06:53:25;;;;;;;14.63;10.32;;;461.20;2355.20;;;;;;5091598;28;20111;-87
2022/05/04 06:55:51;;;;;;;30.88;15.77;;;461.30;2252.80;;;;;;5091267;28;20020;-79
2022/05/04 06:58:17;;;;;;;16.88;12.07;;;461.40;2355.20;;;;;;5090764;28;20440;-79
2022/05/04 07:00:42;;;;;;;24.30;13.65;;;461.50;2380.80;;;;;;5090655;28;20131;-79
2022/05/04 07:03:08;;;;;;;94.43;24.35;;;461.60;2355.20;;;;;;5091153;28;20024;-80
2022/05/04 07:05:34;;;;;;;26.00;13.32;;;461.70;2380.80;;;;;;5091002;28;20472;-79
2022/05/04 07:08:00;;;;;;;23.88;11.50;;;486.40;2329.60;;;;;;5091057;28;20376;-79
2022/05/04 07:10:25;;;;;;;21.05;10.95;;;486.50;2227.20;;;;;;5092374;28;20031;-78
2022/05/04 07:12:53;;;;;;;16.65;10.25;;;486.50;2176.00;;;;;;5092767;28;20023;-79
2022/05/04 07:15:19;;;;;;;13.88;10.38;;;486.60;2150.40;;;;;;5090976;28;20024;-78
2022/05/04 07:17:45;;;;;;;17.77;10.13;;;486.70;2099.20;;;;;;5091014;28;20032;-79
2022/05/04 07:20:11;;;;;;;10.98;8.63;;;486.80;2124.80;;;;;;5091269;28;20070;-86
2022/05/04 07:22:36;;;;;;;13.02;8.48;;;486.90;2022.40;;;;;;5091977;28;20051;-80
2022/05/04 07:25:03;;;;;;;17.83;9.52;;;487.10;2022.40;;;;;;5092152;28;20024;-81
2022/05/04 07:27:29;;;;;;;15.13;8.43;;;487.10;2048.00;;;;;;5091201;28;20028;-78
2022/05/04 07:29:54;;;;;;;10.88;8.00;;;487.30;1971.20;;;;;;5090233;28;20063;-76
2022/05/04 07:32:20;;;;;;;9.80;7.45;;;487.30;1945.60;;;;;;5093027;28;20468;-83
2022/05/04 07:34:46;;;;;;;15.95;7.90;;;512.00;1920.00;;;;;;5091738;28;20399;-80
2022/05/04 07:37:12;;;;;;;13.88;7.57;;;512.20;1894.40;;;;;;5092357;28;20580;-76
2022/05/04 07:42:26;;;;;;;13.80;7.90;;;512.50;1945.60;;;;;;5096567;28;20043;-78
2022/05/04 07:44:58;;;;;;;21.52;11.05;;;512.60;1894.40;;;;;;5094659;28;20028;-78
2022/05/04 07:47:25;;;;;;;12.25;8.23;;;512.70;1817.60;;;;;;5094667;28;20111;-77
2022/05/04 07:49:51;;;;;;;37.17;10.05;;;512.80;1817.60;;;;;;5094860;28;20024;-78
2022/05/04 07:52:17;;;;;;;9.93;6.63;;;512.90;1843.20;;;;;;5094792;28;20448;-77
2022/05/04 07:54:43;;;;;;;11.07;6.75;;;512.90;1740.80;;;;;;5094324;28;20040;-78
2022/05/04 07:57:08;;;;;;;12.07;5.88;;;537.60;1792.00;;;;;;5093987;28;20050;-77
2022/05/04 07:59:34;;;;;;;8.50;5.53;;;537.70;1740.80;;;;;;5093808;28;20101;-77
2022/05/04 08:04:45;;;;;;;84.55;15.18;;;537.70;1715.20;;;;;;5095342;28;20051;-76
2022/05/04 08:07:11;;;;;;;13.60;6.25;;;537.60;1715.20;;;;;;5093689;28;20028;-76
2022/05/04 08:09:36;;;;;;;11.18;6.45;;;537.80;1689.60;;;;;;5094096;28;20039;-77
2022/05/04 08:12:08;;;;;;;14.30;5.75;;;537.90;1689.60;;;;;;5094127;28;20097;-78
2022/05/04 08:14:35;;;;;;;21.30;11.32;;;537.90;1664.00;;;;;;5094153;28;20032;-77
2022/05/04 08:17:01;;;;;;;23.98;8.02;;;537.90;1612.80;;;;;;5094278;28;20425;-78
2022/05/04 08:19:27;;;;;;;16.70;5.97;;;538.10;1664.00;;;;;;5093880;28;20044;-78
2022/05/04 08:21:54;;;;;;;11.88;7.10;;;538.30;1664.00;;;;;;5093715;28;20039;-78
2022/05/04 08:24:20;;;;;;;8.75;5.15;;;538.30;1587.20;;;;;;5093254;28;20039;-78
2022/05/04 08:26:46;;;;;;;9.73;5.38;;;538.40;1638.40;;;;;;5093779;28;20435;-78
2022/05/04 08:29:12;;;;;;;14.70;6.28;;;538.50;1587.20;;;;;;5095002;28;20051;-78
2022/05/04 08:31:38;;;;;;;11.27;4.88;;;538.50;1561.60;;;;;;5093974;28;20067;-78
2022/05/04 08:34:04;;;;;;;7.53;4.75;;;538.40;1510.40;;;;;;5093642;28;20020;-78
2022/05/04 08:36:30;;;;;;;6.57;3.78;;;538.50;1510.40;;;;;;5094490;28;20028;-78
2022/05/04 08:38:55;;;;;;;8.23;4.50;;;538.50;1484.80;;;;;;5093067;28;20177;-78
2022/05/04 08:41:25;;;;;;;8.70;5.70;;;538.50;1433.60;;;;;;5094323;28;20032;-78
2022/05/04 08:43:51;;;;;;;15.60;8.23;;;538.50;1433.60;;;;;;5093930;28;20166;-79
2022/05/04 08:46:21;;;;;;;8.23;5.88;;;563.20;1459.20;;;;;;5093476;28;20480;-79
2022/05/04 08:48:49;;;;;;;13.40;5.07;;;538.50;1408.00;;;;;;5093209;28;20040;-78
2022/05/04 08:51:16;;;;;;;7.18;4.65;;;563.30;1433.60;;;;;;5094634;28;20024;-78
2022/05/04 08:53:44;;;;;;;10.55;4.97;;;563.40;1433.60;;;;;;5093426;28;20070;-78
2022/05/04 08:56:10;;;;;;;54.85;8.85;;;563.40;1433.60;;;;;;5094527;28;20023;-78
2022/05/04 08:58:39;;;;;;;7.50;3.67;;;563.60;1356.80;;;;;;5093103;28;20032;-77
2022/05/04 09:01:05;;;;;;;14.65;4.82;;;563.50;1331.20;;;;;;5093178;28;20052;-78
2022/05/04 09:03:32;;;;;;;6.38;3.50;;;563.60;1331.20;;;;;;5093117;28;20085;-77
2022/05/04 09:05:58;;;;;;;9.48;4.00;;;563.60;1356.80;;;;;;5094650;28;20434;-78
2022/05/04 09:08:24;;;;;;;25.17;5.13;;;563.70;1382.40;;;;;;5093112;28;20384;-77
2022/05/04 09:10:50;;;;;;;10.98;6.03;;;563.70;1382.40;;;;;;5094271;28;20020;-78
2022/05/04 09:13:19;;;;;;;10.25;4.30;;;563.90;1356.80;;;;;;5094146;28;20073;-78
2022/05/04 09:15:45;;;;;;;14.23;6.78;;;564.00;1382.40;;;;;;5094316;28;20077;-78
2022/05/04 09:18:15;;;;;;;9.27;6.25;;;564.10;1356.80;;;;;;5094252;28;20020;-77
2022/05/04 09:20:48;;;;;;;9.32;4.05;;;564.10;1305.60;;;;;;5093957;28;20036;-78
2022/05/04 09:23:34;;;;;;;7.95;3.88;;;588.80;1331.20;;;;;;5092865;28;20032;-77
2022/05/04 09:26:07;;;;;;;6.63;3.38;;;588.90;1280.00;;;;;;5093462;28;20032;-77
2022/05/04 09:28:34;;;;;;;9.85;3.92;;;588.80;1280.00;;;;;;5093779;28;20118;-79
2022/05/04 09:31:07;;;;;;;7.28;3.78;;;588.90;1254.40;;;;;;5094034;28;20375;-78
2022/05/04 09:33:37;;;;;;;7.75;4.28;;;588.90;1228.80;;;;;;5092456;28;20021;-78
2022/05/04 09:36:05;;;;;;;9.63;5.82;;;589.10;1254.40;;;;;;5093823;28;20020;-77
2022/05/04 09:47:20;;;;;;;8.40;3.45;;;589.70;1254.40;;;;;;5051767;28;20059;-78
2022/05/04 09:49:48;;;;;;;6.90;4.20;;;589.60;1203.20;;;;;;5051481;28;20033;-77
2022/05/04 09:52:22;;;;;;;13.23;5.78;;;589.70;1203.20;;;;;;5051108;28;20560;-78
2022/05/04 09:54:47;;;;;;;5.55;3.38;;;614.50;1203.20;;;;;;5034032;28;20071;-78
2022/05/04 09:57:14;;;;;;;9.10;3.55;;;614.60;1228.80;;;;;;5034378;28;20020;-77
2022/05/04 09:59:42;;;;;;;5.60;3.25;;;614.70;1254.40;;;;;;5050889;28;20140;-78
2022/05/04 10:02:09;;;;;;;13.23;6.15;;;614.90;1280.00;;;;;;5049694;28;20056;-77
2022/05/04 10:04:36;;;;;;;7.07;3.88;;;615.00;1203.20;;;;;;5051097;28;20453;-77
2022/05/04 10:07:03;;;;;;;12.63;4.97;;;615.10;1203.20;;;;;;5050804;28;20029;-78
2022/05/04 10:09:30;;;;;;;8.57;3.83;;;615.10;1203.20;;;;;;5033831;28;20033;-78
2022/05/04 10:11:58;;;;;;;11.82;4.35;;;614.90;1203.20;;;;;;5034305;28;20029;-77
2022/05/04 10:14:28;;;;;;;9.68;3.80;;;614.60;1177.60;;;;;;5058550;28;20123;-77
2022/05/04 10:17:13;;;;;;;14.10;7.03;;;614.90;1177.60;;;;;;5093081;28;20016;-78
2022/05/04 10:19:44;;;;;;;9.05;3.63;;;615.20;1203.20;;;;;;5092450;28;20020;-77
2022/05/04 10:22:14;;;;;;;9.55;5.53;;;615.30;1203.20;;;;;;5091053;28;20059;-76
2022/05/04 10:24:42;;;;;;;16.23;6.13;;;640.10;1177.60;;;;;;5089049;28;20468;-77
2022/05/04 10:27:16;;;;;;;5.57;3.92;;;640.40;1126.40;;;;;;5089418;28;20028;-78
2022/05/04 10:32:42;;;;;;;9.77;4.10;;;640.00;1228.80;;;;;;5093006;28;20077;-78
2022/05/04 10:35:38;;;;;;;7.13;3.47;;;640.10;1177.60;;;;;;5092678;28;20024;-78
2022/05/04 10:38:26;;;;;;;9.68;4.35;;;640.40;1228.80;;;;;;5091072;28;20028;-77
2022/05/04 10:40:55;;;;;;;5.15;3.38;;;640.60;1177.60;;;;;;5088110;28;20114;-77
2022/05/04 10:43:45;;;;;;;7.50;4.28;;;640.70;1203.20;;;;;;5088352;28;20106;-77
2022/05/04 10:46:22;;;;;;;9.07;3.78;;;640.80;1177.60;;;;;;5092600;28;20480;-75
2022/05/04 10:48:59;;;;;;;7.43;4.82;;;640.40;1177.60;;;;;;5092372;28;20031;-76
2022/05/04 10:51:30;;;;;;;10.15;6.00;;;640.50;1152.00;;;;;;5090865;28;20020;-79
2022/05/04 10:54:00;;;;;;;9.55;5.00;;;640.60;1152.00;;;;;;5089391;28;20383;-77
2022/05/04 10:56:28;;;;;;;11.05;4.80;;;640.90;1126.40;;;;;;5090693;28;20061;-77
2022/05/04 10:58:59;;;;;;;8.15;5.25;;;665.60;1126.40;;;;;;5092043;28;20024;-77
2022/05/04 11:01:34;;;;;;;8.63;4.30;;;665.70;1152.00;;;;;;5092176;28;20055;-77
2022/05/04 11:04:13;;;;;;;8.07;3.95;;;665.60;1152.00;;;;;;5091262;28;20476;-76
2022/05/04 11:06:45;;;;;;;9.73;3.80;;;665.70;1152.00;;;;;;5090739;28;20032;-76
2022/05/04 11:09:21;;;;;;;8.13;4.20;;;666.00;1126.40;;;;;;5090033;28;20480;-76
2022/05/04 11:11:50;;;;;;;5.68;3.78;;;666.00;1126.40;;;;;;5091485;28;20070;-76
2022/05/04 11:14:17;;;;;;;9.85;4.22;;;666.10;1100.80;;;;;;5091275;28;20028;-76
2022/05/04 11:16:45;;;;;;;6.57;3.85;;;666.20;1100.80;;;;;;5084273;28;20020;-77
2022/05/04 11:19:17;;;;;;;9.32;3.75;;;666.20;1100.80;;;;;;5090423;28;20031;-77
2022/05/04 11:21:43;;;;;;;5.25;4.22;;;666.30;1100.80;;;;;;5099754;28;20074;-77
2022/05/04 11:24:12;;;;;;;9.63;3.80;;;666.30;1100.80;;;;;;5092053;28;20028;-76
2022/05/04 11:26:40;;;;;;;122.15;29.38;;;666.30;1177.60;;;;;;5090661;28;20020;-78
2022/05/04 11:29:17;;;;;;;7.60;5.47;;;666.30;1152.00;;;;;;5089673;28;20028;-77
2022/05/04 11:31:46;;;;;;;8.30;3.80;;;666.30;1126.40;;;;;;5091994;28;20032;-76
2022/05/04 11:34:16;;;;;;;6.80;4.10;;;666.40;1126.40;;;;;;5090893;28;20548;-77
2022/05/04 11:36:47;;;;;;;7.38;4.03;;;666.30;1126.40;;;;;;5090610;28;20057;-76
2022/05/04 11:39:21;;;;;;;8.68;3.60;;;666.50;1126.40;;;;;;5089967;28;20490;-76
2022/05/04 11:41:49;;;;;;;7.13;4.00;;;666.30;1126.40;;;;;;5091944;28;20481;-76
2022/05/04 11:44:15;;;;;;;5.88;4.38;;;666.20;1152.00;;;;;;5090456;28;20024;-76
2022/05/04 11:46:47;;;;;;;5.65;4.03;;;666.30;1100.80;;;;;;5092165;28;20028;-76
2022/05/04 11:49:14;;;;;;;13.30;5.10;;;666.40;1152.00;;;;;;5090466;28;20020;-77
2022/05/04 11:51:40;;;;;;;8.80;4.78;;;691.20;1126.40;;;;;;5090756;28;20026;-77
2022/05/04 11:54:06;;;;;;;15.68;4.95;;;666.20;1152.00;;;;;;5091114;28;20038;-77
2022/05/04 11:56:33;;;;;;;6.45;4.03;;;666.30;1152.00;;;;;;5091440;28;20472;-77
2022/05/04 11:58:59;;;;;;;8.30;4.32;;;691.50;1100.80;;;;;;5088412;28;20138;-78
2022/05/04 12:01:25;;;;;;;9.02;4.05;;;691.30;1100.80;;;;;;5091143;28;20118;-77
2022/05/04 12:03:52;;;;;;;6.70;4.22;;;691.30;1100.80;;;;;;5092003;28;20107;-76
2022/05/04 12:06:18;;;;;;;7.85;4.07;;;691.50;1075.20;;;;;;5091647;28;20058;-77
2022/05/04 12:08:44;;;;;;;6.38;3.45;;;691.50;1075.20;;;;;;5091849;28;20026;-76
2022/05/04 12:11:11;;;;;;;6.72;4.07;;;691.60;1049.60;;;;;;5091500;28;20060;-76
2022/05/04 12:13:41;;;;;;;9.68;4.22;;;691.40;1049.60;;;;;;5090389;28;20027;-76
2022/05/04 12:16:09;;;;;;;12.23;4.47;;;691.40;1075.20;;;;;;5090378;28;20040;-77
2022/05/04 12:18:38;;;;;;;9.15;4.10;;;691.40;1075.20;;;;;;5089675;28;20032;-75
2022/05/04 12:21:12;;;;;;;11.32;4.47;;;691.40;1075.20;;;;;;5089769;28;20036;-77
2022/05/04 12:23:47;;;;;;;4.55;3.60;;;691.50;1075.20;;;;;;5091124;28;20020;-76
2022/05/04 12:26:13;;;;;;;13.00;4.63;;;691.40;1075.20;;;;;;5092793;28;20073;-77
2022/05/04 12:28:42;;;;;;;5.57;3.95;;;691.50;1075.20;;;;;;5094357;28;20090;-77
2022/05/04 12:33:55;;;;;;;5.85;3.83;;;691.70;1075.20;;;;;;5095588;28;20038;-76
2022/05/04 12:36:23;;;;;;;5.78;3.35;;;666.50;1049.60;;;;;;5093597;28;20547;-77
2022/05/04 12:38:51;;;;;;;6.38;3.78;;;691.20;1075.20;;;;;;5095072;28;20028;-78
2022/05/04 12:41:24;;;;;;;9.98;4.07;;;691.30;1100.80;;;;;;5093419;28;20028;-77
2022/05/04 12:43:51;;;;;;;12.20;4.50;;;691.30;1075.20;;;;;;5093417;28;20392;-78
2022/05/04 12:46:19;;;;;;;8.18;3.97;;;691.30;1075.20;;;;;;5094582;28;20270;-77